Time;durP1;ratioP1;P1;durP2;ratioP2;P2;SDS_P1;SDS_P2;PMS_P1;PMS_P2;Temp;Humidity;BMP_temperature;BMP_pressure;BME280_temperature;BME280_humidity;BME280_pressure;Samples;Min_cycle;Max_cycle;Signal;HPM_P1;HPM_P2
2021/11/15 00:08:40;;;;;;;29.63;14.45;;;;;;;6.46;75.31;101619.00;8682704;33;20184;-74
2021/11/15 00:13:44;;;;;;;30.75;15.30;;;;;;;6.43;75.22;101615.63;8659432;33;21488;-74
2021/11/15 00:18:47;;;;;;;32.20;14.73;;;;;;;6.36;75.57;101604.34;8688505;33;20426;-73
2021/11/15 00:23:50;;;;;;;32.00;14.25;;;;;;;6.20;76.06;101614.84;8680438;33;20868;-74
2021/11/15 00:28:56;;;;;;;30.10;14.10;;;;;;;6.05;76.70;101613.66;8681863;33;20483;-73
2021/11/15 00:33:59;;;;;;;30.95;15.05;;;;;;;6.22;76.73;101615.59;8676612;33;20465;-74
2021/11/15 00:39:03;;;;;;;32.90;15.70;;;;;;;6.27;76.70;101610.09;8678037;33;20419;-73
2021/11/15 00:44:08;;;;;;;33.90;15.48;;;;;;;6.25;76.70;101612.81;8665078;33;20178;-73
2021/11/15 00:49:11;;;;;;;30.85;14.35;;;;;;;6.25;76.67;101614.59;8666106;33;20182;-74
2021/11/15 00:54:14;;;;;;;28.65;13.45;;;;;;;6.17;76.57;101618.50;8671169;33;20172;-74
2021/11/15 00:59:18;;;;;;;29.15;13.52;;;;;;;6.10;76.56;101613.47;8661704;33;20208;-73
2021/11/15 01:04:21;;;;;;;31.17;13.77;;;;;;;5.98;76.64;101616.66;8660969;33;20429;-75
2021/11/15 01:09:25;;;;;;;26.23;13.30;;;;;;;6.09;76.60;101617.09;8663583;33;20520;-73
2021/11/15 01:14:30;;;;;;;27.85;15.15;;;;;;;6.08;76.28;101628.69;8661774;33;20443;-74
2021/11/15 01:19:33;;;;;;;27.00;13.52;;;;;;;6.09;76.46;101620.63;8663707;33;20147;-73
2021/11/15 01:24:36;;;;;;;32.88;13.95;;;;;;;6.01;76.92;101621.88;8678449;33;20208;-74
2021/11/15 01:29:41;;;;;;;27.77;13.03;;;;;;;6.10;76.97;101613.47;8674457;33;20498;-73
2021/11/15 01:34:44;;;;;;;25.38;11.70;;;;;;;6.09;76.44;101606.44;8674177;33;20781;-74
2021/11/15 01:39:48;;;;;;;27.42;12.82;;;;;;;6.02;76.43;101596.94;8637684;33;20512;-74
2021/11/15 01:44:54;;;;;;;24.17;12.20;;;;;;;6.04;76.75;101589.75;8660362;33;20601;-73
2021/11/15 01:49:57;;;;;;;26.40;11.57;;;;;;;5.98;76.45;101588.22;8660215;33;20142;-74
2021/11/15 01:55:00;;;;;;;24.25;12.40;;;;;;;5.94;76.44;101587.44;8658749;33;20832;-73
2021/11/15 02:00:08;;;;;;;24.58;13.15;;;;;;;5.88;76.36;101579.72;8658992;33;21056;-73
2021/11/15 02:05:14;;;;;;;28.45;12.98;;;;;;;5.89;76.30;101573.44;8659370;33;21166;-73
2021/11/15 02:10:17;;;;;;;23.63;12.63;;;;;;;5.68;76.06;101571.69;8659318;33;20175;-73
2021/11/15 02:15:22;;;;;;;26.15;12.70;;;;;;;5.75;75.97;101573.16;8657713;33;20150;-73
2021/11/15 02:20:29;;;;;;;24.17;11.45;;;;;;;5.73;75.87;101567.00;8633258;33;20199;-73
2021/11/15 02:25:32;;;;;;;23.25;12.38;;;;;;;5.70;75.74;101564.47;8660339;33;20139;-74
2021/11/15 02:30:35;;;;;;;21.33;12.13;;;;;;;5.49;76.12;101566.25;8657569;33;20748;-74
2021/11/15 02:35:40;;;;;;;25.92;12.18;;;;;;;5.53;75.99;101561.66;8660077;33;20571;-73
2021/11/15 02:40:44;;;;;;;25.42;13.30;;;;;;;5.50;76.39;101558.19;8660019;33;20442;-73
2021/11/15 02:45:47;;;;;;;25.58;12.50;;;;;;;5.39;76.47;101564.88;8651044;33;21786;-74
2021/11/15 02:50:52;;;;;;;26.95;13.25;;;;;;;5.40;76.28;101558.63;8648737;33;20520;-74
2021/11/15 02:55:55;;;;;;;31.58;14.45;;;;;;;5.43;76.48;101559.38;8650434;33;20189;-73
2021/11/15 03:01:03;;;;;;;30.67;16.10;;;;;;;5.47;76.78;101557.44;8628058;33;20486;-75
2021/11/15 03:06:08;;;;;;;37.22;17.02;;;;;;;5.39;77.08;101563.09;8657576;33;20451;-74
2021/11/15 03:11:11;;;;;;;35.50;16.70;;;;;;;5.53;76.76;101567.84;8632148;33;21528;-74
2021/11/15 03:16:15;;;;;;;36.83;18.65;;;;;;;5.56;76.70;101566.88;8649800;33;21096;-73
2021/11/15 03:21:23;;;;;;;35.67;19.05;;;;;;;5.53;76.92;101567.84;8651202;33;20139;-74
2021/11/15 03:26:27;;;;;;;33.72;17.90;;;;;;;5.56;76.67;101567.72;8656521;33;20182;-73
2021/11/15 03:31:34;;;;;;;37.53;18.17;;;;;;;5.56;76.74;101569.53;8668400;33;20189;-74
2021/11/15 03:36:41;;;;;;;38.40;19.52;;;;;;;5.54;76.91;101569.59;8648698;33;20178;-73
2021/11/15 03:41:46;;;;;;;39.65;19.55;;;;;;;5.50;77.14;101573.31;8674904;33;20407;-73
2021/11/15 03:46:49;;;;;;;47.58;21.30;;;;;;;5.41;77.42;101571.03;8677373;33;20667;-74
2021/11/15 03:51:53;;;;;;;46.28;18.88;;;;;;;5.40;77.47;101580.84;8683114;33;20138;-74
2021/11/15 03:56:56;;;;;;;37.13;18.50;;;;;;;5.42;77.37;101575.44;8657463;33;21244;-73
2021/11/15 04:02:00;;;;;;;42.38;19.70;;;;;;;5.38;77.21;101574.69;8682980;33;20567;-73
2021/11/15 04:07:07;;;;;;;48.00;19.77;;;;;;;5.42;77.70;101581.63;8677345;33;20189;-73
2021/11/15 04:12:10;;;;;;;42.08;19.45;;;;;;;5.39;78.03;101578.22;8667001;33;21210;-74
2021/11/15 04:17:13;;;;;;;37.00;18.20;;;;;;;5.29;78.53;101572.38;8668390;33;20612;-73
2021/11/15 04:22:18;;;;;;;40.50;18.38;;;;;;;5.26;78.58;101570.69;8663712;33;20415;-73
2021/11/15 04:27:21;;;;;;;40.13;18.13;;;;;;;5.30;78.89;101575.94;8663455;33;20160;-73
2021/11/15 04:32:24;;;;;;;38.20;18.17;;;;;;;5.25;78.97;101568.97;8664972;33;20217;-74
2021/11/15 04:37:28;;;;;;;35.22;15.98;;;;;;;5.11;78.67;101563.34;8658345;33;20182;-73
2021/11/15 04:42:31;;;;;;;28.80;13.13;;;;;;;5.18;77.79;101562.13;8662686;33;20396;-74
2021/11/15 04:47:35;;;;;;;26.17;12.55;;;;;;;5.20;76.93;101560.28;8664036;33;20464;-73
2021/11/15 04:52:40;;;;;;;28.65;12.85;;;;;;;5.16;75.93;101563.16;8661107;33;20420;-74
2021/11/15 04:57:43;;;;;;;22.90;11.23;;;;;;;5.20;75.38;101559.44;8660250;33;20853;-73
2021/11/15 05:02:47;;;;;;;25.25;11.77;;;;;;;5.24;75.21;101543.28;8661607;33;20178;-73
2021/11/15 05:07:53;;;;;;;29.30;12.23;;;;;;;5.25;74.71;101546.78;8661476;33;20185;-73
2021/11/15 05:13:01;;;;;;;27.17;12.07;;;;;;;5.21;74.90;101545.16;8661252;33;20406;-73
2021/11/15 05:18:04;;;;;;;29.10;13.95;;;;;;;5.18;74.73;101535.50;8660952;33;20147;-74
2021/11/15 05:23:09;;;;;;;26.63;12.45;;;;;;;5.23;74.67;101538.00;8649123;33;20979;-73
2021/11/15 05:28:13;;;;;;;25.70;11.50;;;;;;;5.24;74.64;101540.59;8663146;33;20579;-73
2021/11/15 05:33:17;;;;;;;30.83;12.35;;;;;;;5.27;74.70;101540.47;8650859;33;20427;-74
2021/11/15 05:38:22;;;;;;;24.45;12.02;;;;;;;5.29;74.51;101543.06;8666458;33;20415;-75
2021/11/15 05:43:25;;;;;;;24.17;12.30;;;;;;;5.25;74.67;101547.66;8669419;33;20624;-74
2021/11/15 05:48:28;;;;;;;27.25;12.57;;;;;;;5.24;75.10;101547.75;8674504;33;20522;-73
2021/11/15 05:53:34;;;;;;;27.85;12.52;;;;;;;5.30;74.95;101541.28;8659174;33;20571;-74
2021/11/15 05:58:37;;;;;;;28.63;12.02;;;;;;;5.27;75.06;101547.63;8655833;33;20445;-73
2021/11/15 06:03:40;;;;;;;26.40;12.20;;;;;;;5.33;74.67;101544.69;8662349;33;20524;-73
2021/11/15 06:08:45;;;;;;;27.95;13.68;;;;;;;5.33;74.27;101559.81;8660033;33;20404;-74
2021/11/15 06:13:48;;;;;;;28.48;13.73;;;;;;;5.23;74.07;101568.16;8660417;33;20595;-72
2021/11/15 06:18:51;;;;;;;27.90;13.02;;;;;;;5.17;73.90;101576.41;8662417;33;20169;-73
2021/11/15 06:23:55;;;;;;;29.60;14.57;;;;;;;5.20;74.07;101572.75;8634898;33;20188;-74
2021/11/15 06:28:59;;;;;;;32.45;13.38;;;;;;;5.25;73.87;101570.78;8660979;33;20966;-73
2021/11/15 06:34:02;;;;;;;31.27;14.25;;;;;;;5.26;73.97;101577.81;8660195;33;20380;-72
2021/11/15 06:39:06;;;;;;;30.90;15.45;;;;;;;5.22;73.87;101582.44;8600522;33;20409;-74
2021/11/15 06:44:09;;;;;;;36.83;17.73;;;;;;;5.24;73.57;101577.03;8636646;33;20427;-74
2021/11/15 06:49:13;;;;;;;36.38;15.60;;;;;;;5.23;73.57;101572.63;8662576;33;20495;-74
2021/11/15 06:54:17;;;;;;;37.70;15.25;;;;;;;5.14;72.95;101573.00;8662100;33;20524;-73
2021/11/15 06:59:21;;;;;;;33.58;15.10;;;;;;;5.24;73.59;101588.56;8659158;33;20547;-73
2021/11/15 07:04:24;;;;;;;39.97;16.98;;;;;;;5.48;72.67;101580.50;8657829;33;20182;-74
2021/11/15 07:09:29;;;;;;;34.55;14.40;;;;;;;5.52;72.27;101597.25;8630821;33;20139;-74
2021/11/15 07:14:32;;;;;;;31.90;15.25;;;;;;;5.53;71.58;101590.97;8655183;33;21596;-74
2021/11/15 07:19:37;;;;;;;43.90;17.70;;;;;;;5.68;71.28;101596.56;8657516;33;20142;-74
2021/11/15 07:25:01;;;;;;;47.67;19.40;;;;;;;5.54;71.17;101598.03;8659162;33;21024;-74
2021/11/15 07:30:07;;;;;;;48.35;20.10;;;;;;;5.59;71.39;101598.72;8638619;33;20581;-74
2021/11/15 07:35:10;;;;;;;47.13;21.42;;;;;;;5.57;71.75;101604.13;8665742;33;20142;-74
2021/11/15 07:40:18;;;;;;;48.60;19.98;;;;;;;5.46;72.24;101609.91;8665556;33;20235;-73
2021/11/15 07:45:21;;;;;;;51.45;20.70;;;;;;;5.48;71.72;101609.81;8665530;33;20531;-73
2021/11/15 07:50:24;;;;;;;54.05;20.88;;;;;;;5.36;71.85;101618.31;8665360;33;20418;-73
2021/11/15 07:55:29;;;;;;;49.90;20.73;;;;;;;5.08;72.76;101622.06;8665076;33;20448;-73
2021/11/15 08:00:33;;;;;;;50.07;20.93;;;;;;;5.22;72.58;101622.38;8664966;33;20428;-74
2021/11/15 08:05:37;;;;;;;49.60;21.08;;;;;;;5.10;72.72;101614.00;8639080;33;20426;-74
2021/11/15 08:10:42;;;;;;;48.05;19.75;;;;;;;5.20;72.70;101613.56;8640006;33;20579;-73
2021/11/15 08:15:45;;;;;;;40.72;18.95;;;;;;;5.14;72.29;101607.63;8639799;33;21569;-73
2021/11/15 08:20:48;;;;;;;47.50;20.00;;;;;;;5.21;71.98;101591.34;8661108;33;20475;-73
2021/11/15 08:26:36;;;;;;;46.30;18.33;;;;;;;5.08;72.29;101599.88;8657932;33;20482;-74
2021/11/15 08:31:58;;;;;;;40.20;18.70;;;;;;;5.18;72.13;101603.91;8654700;33;20420;-74
2021/11/15 08:37:03;;;;;;;36.80;17.65;;;;;;;5.16;72.29;101603.97;8654041;33;20966;-74
2021/11/15 08:42:10;;;;;;;36.75;17.05;;;;;;;5.22;72.13;101609.06;8655086;33;21617;-74
2021/11/15 08:47:13;;;;;;;34.55;15.52;;;;;;;5.18;71.78;101602.09;8659944;33;20180;-74
2021/11/15 08:52:16;;;;;;;33.17;16.77;;;;;;;5.05;71.47;101600.88;8661161;33;20226;-73
2021/11/15 08:57:21;;;;;;;33.25;15.73;;;;;;;5.03;71.07;101606.25;8656234;33;21080;-74
2021/11/15 09:02:24;;;;;;;27.60;14.50;;;;;;;4.89;70.94;101608.53;8655045;33;20625;-73
2021/11/15 09:07:28;;;;;;;30.55;14.02;;;;;;;4.99;71.07;101612.63;8651796;33;20204;-73
2021/11/15 09:12:33;;;;;;;37.10;16.88;;;;;;;4.95;71.35;101610.09;8655104;33;21587;-74
2021/11/15 09:17:37;;;;;;;31.45;15.52;;;;;;;5.14;71.19;101616.47;8650585;33;21450;-73
2021/11/15 09:22:41;;;;;;;33.30;16.13;;;;;;;5.22;71.01;101601.06;8654807;33;20429;-74
2021/11/15 09:27:46;;;;;;;35.83;16.73;;;;;;;5.24;70.73;101587.69;8621515;33;20427;-74
2021/11/15 09:32:49;;;;;;;34.42;15.60;;;;;;;5.31;70.67;101597.16;8594951;33;20147;-74
2021/11/15 09:37:52;;;;;;;36.70;17.35;;;;;;;5.36;70.76;101594.34;8596147;33;20780;-74
2021/11/15 09:43:01;;;;;;;32.97;15.30;;;;;;;5.34;70.20;101590.84;8593869;33;20195;-74
2021/11/15 09:48:05;;;;;;;35.78;15.50;;;;;;;5.50;69.85;101581.31;8600587;33;20190;-74
2021/11/15 09:53:10;;;;;;;30.15;14.25;;;;;;;5.52;70.13;101586.59;8598603;33;20208;-74
2021/11/15 09:58:14;;;;;;;31.17;13.80;;;;;;;5.59;69.49;101588.91;8593265;33;20405;-74
2021/11/15 10:03:18;;;;;;;29.20;12.20;;;;;;;5.58;69.38;101597.00;8594031;33;21280;-73
2021/11/15 10:08:21;;;;;;;27.77;13.55;;;;;;;5.63;68.99;101587.88;8594169;33;20574;-74
2021/11/15 10:13:32;;;;;;;33.70;13.35;;;;;;;5.62;68.90;101590.59;8592919;33;20151;-74
2021/11/15 10:18:50;;;;;;;29.30;14.13;;;;;;;5.69;69.01;101576.09;8599995;33;20956;-74
2021/11/15 10:24:01;;;;;;;25.88;14.57;;;;;;;5.70;68.68;101576.03;8603814;33;20185;-74
2021/11/15 10:29:10;;;;;;;29.23;13.88;;;;;;;5.78;68.64;101573.03;8603556;33;21075;-74
2021/11/15 10:34:21;;;;;;;29.08;14.50;;;;;;;5.84;68.58;101575.47;8602860;33;20569;-74
2021/11/15 10:39:28;;;;;;;29.27;14.13;;;;;;;5.87;68.16;101580.66;8602817;33;20429;-74
2021/11/15 10:44:34;;;;;;;29.20;14.38;;;;;;;5.75;67.96;101570.50;8597516;33;20393;-74
2021/11/15 10:49:37;;;;;;;31.48;14.50;;;;;;;5.83;68.15;101565.72;8597069;33;20491;-74
2021/11/15 10:54:56;;;;;;;35.88;15.05;;;;;;;5.85;68.15;101553.19;8599945;33;20695;-74
2021/11/15 11:00:40;;;;;;;32.58;13.32;;;;;;;5.90;67.75;101556.53;8601192;33;20135;-74
2021/11/15 11:05:46;;;;;;;34.15;15.85;;;;;;;5.88;67.93;101555.72;8605396;33;20170;-74
2021/11/15 11:11:03;;;;;;;34.75;14.75;;;;;;;5.90;67.89;101550.31;8608246;33;20852;-74
2021/11/15 11:16:08;;;;;;;30.50;14.07;;;;;;;5.83;67.94;101549.72;8605657;33;20151;-74
2021/11/15 11:21:30;;;;;;;30.77;16.50;;;;;;;5.75;67.87;101554.50;8606408;33;20372;-74
2021/11/15 11:26:36;;;;;;;27.75;14.18;;;;;;;5.80;68.46;101563.19;8601292;33;20475;-74
2021/11/15 11:31:45;;;;;;;31.52;15.35;;;;;;;5.90;68.23;101555.66;8600450;33;20204;-74
2021/11/15 11:36:51;;;;;;;33.25;16.55;;;;;;;5.93;67.78;101559.06;8605279;33;20509;-74
2021/11/15 11:41:59;;;;;;;37.60;20.17;;;;;;;5.84;68.11;101555.91;8604632;33;21041;-74
2021/11/15 11:47:07;;;;;;;33.90;15.10;;;;;;;5.86;67.97;101546.91;8603507;33;20175;-74
2021/11/15 11:52:13;;;;;;;31.58;15.05;;;;;;;5.87;68.37;101534.44;8606049;33;20155;-74
2021/11/15 11:57:23;;;;;;;31.95;14.77;;;;;;;5.74;67.91;101523.44;8606341;33;20447;-74
2021/11/15 12:02:30;;;;;;;35.30;15.80;;;;;;;5.82;67.81;101525.78;8607041;33;20343;-74
2021/11/15 12:07:36;;;;;;;30.20;15.00;;;;;;;5.90;67.76;101513.00;8603818;33;20413;-74
2021/11/15 12:13:04;;;;;;;34.50;15.52;;;;;;;5.88;68.13;101509.50;8603278;33;20454;-72
2021/11/15 12:18:18;;;;;;;33.28;15.82;;;;;;;5.98;67.47;101502.84;8603375;33;20841;-74
2021/11/15 12:23:21;;;;;;;37.55;15.57;;;;;;;5.94;67.49;101509.25;8604595;33;20143;-74
2021/11/15 12:28:30;;;;;;;32.45;16.05;;;;;;;5.59;68.66;101524.09;8602972;33;20187;-74
2021/11/15 12:33:37;;;;;;;31.08;15.57;;;;;;;5.70;68.85;101513.81;8604705;33;20233;-74
2021/11/15 12:38:46;;;;;;;27.55;15.05;;;;;;;5.73;68.44;101505.69;8604821;33;20865;-74
2021/11/15 12:44:20;;;;;;;30.08;14.32;;;;;;;5.65;68.29;101495.38;8602508;33;20169;-74
2021/11/15 12:49:34;;;;;;;28.60;15.30;;;;;;;5.70;68.08;101493.38;8596424;33;22244;-74
2021/11/15 12:54:47;;;;;;;27.20;14.07;;;;;;;5.68;68.63;101489.06;8592218;33;20178;-74
2021/11/15 12:59:53;;;;;;;47.78;23.80;;;;;;;5.63;68.49;101486.56;8594932;33;21006;-74
2021/11/15 13:04:58;;;;;;;32.78;17.00;;;;;;;5.71;68.73;101484.44;8594503;33;20398;-74
2021/11/15 13:10:02;;;;;;;36.17;17.35;;;;;;;5.75;68.34;101473.66;8594232;33;20503;-74
2021/11/15 13:15:07;;;;;;;38.38;17.50;;;;;;;5.76;68.40;101476.25;8591257;33;20609;-73
2021/11/15 13:20:13;;;;;;;32.22;15.40;;;;;;;5.66;68.19;101478.44;8595218;33;20430;-74
2021/11/15 13:25:19;;;;;;;34.25;15.95;;;;;;;5.73;67.99;101471.03;8597588;33;20143;-74
2021/11/15 13:30:23;;;;;;;35.65;17.13;;;;;;;5.75;67.80;101471.84;8596254;33;20605;-74
2021/11/15 13:35:28;;;;;;;36.83;17.92;;;;;;;5.75;68.21;101461.16;8602706;33;20236;-74
2021/11/15 13:40:36;;;;;;;29.85;15.68;;;;;;;5.64;68.19;101463.44;8604270;33;20259;-74
2021/11/15 13:45:41;;;;;;;35.78;17.45;;;;;;;5.75;68.24;101458.50;8602717;33;20478;-73
2021/11/15 13:50:45;;;;;;;35.83;16.98;;;;;;;5.69;69.02;101462.31;8602149;33;20242;-74
2021/11/15 13:55:50;;;;;;;39.50;18.98;;;;;;;5.48;69.77;101461.41;8607846;33;20416;-74
2021/11/15 14:00:53;;;;;;;40.22;19.52;;;;;;;5.55;69.43;101462.03;8609733;33;20142;-74
2021/11/15 14:05:57;;;;;;;42.22;18.92;;;;;;;5.51;69.65;101460.44;8604291;33;20196;-74
2021/11/15 14:11:01;;;;;;;35.88;17.75;;;;;;;5.48;69.66;101471.22;8603277;33;20418;-73
2021/11/15 14:16:06;;;;;;;42.38;19.45;;;;;;;5.46;69.77;101468.63;8599534;33;20509;-74
2021/11/15 14:21:11;;;;;;;41.30;19.55;;;;;;;5.50;70.04;101466.69;8598413;33;20408;-74
2021/11/15 14:26:15;;;;;;;44.05;19.90;;;;;;;5.47;69.96;101473.03;8596372;33;20207;-74
2021/11/15 14:31:19;;;;;;;48.75;21.38;;;;;;;5.36;70.13;101469.94;8599912;33;22235;-74
2021/11/15 14:36:23;;;;;;;40.53;19.63;;;;;;;5.44;70.82;101465.16;8619872;33;21975;-74
2021/11/15 14:41:27;;;;;;;43.42;18.95;;;;;;;5.47;70.47;101467.69;8624076;33;21046;-74
2021/11/15 14:46:30;;;;;;;43.17;19.63;;;;;;;5.46;70.15;101465.13;8617128;33;20124;-74
2021/11/15 14:51:34;;;;;;;45.67;19.50;;;;;;;5.39;70.46;101467.16;8623631;33;20389;-74
2021/11/15 14:56:37;;;;;;;45.97;19.85;;;;;;;5.32;70.45;101479.03;8627879;33;20463;-74
2021/11/15 15:01:47;;;;;;;46.28;21.50;;;;;;;5.26;70.25;101473.91;8629941;33;20497;-74
2021/11/15 15:06:55;;;;;;;45.58;19.35;;;;;;;5.29;70.32;101476.44;8653676;33;20414;-74
2021/11/15 15:11:58;;;;;;;45.72;21.52;;;;;;;5.17;70.35;101476.97;8648328;33;20216;-73
2021/11/15 15:17:03;;;;;;;55.15;24.13;;;;;;;5.08;70.86;101459.59;8646887;33;20175;-74
2021/11/15 15:22:07;;;;;;;39.35;20.15;;;;;;;5.19;70.73;101461.81;8650467;33;20196;-74
2021/11/15 15:27:10;;;;;;;56.85;25.42;;;;;;;5.14;70.25;101450.47;8660581;33;20549;-74
2021/11/15 15:32:13;;;;;;;42.85;18.25;;;;;;;4.98;70.31;101445.72;8671385;33;20470;-74
2021/11/15 15:37:18;;;;;;;41.72;20.35;;;;;;;5.01;70.46;101442.97;8671514;33;20419;-74
2021/11/15 15:42:21;;;;;;;45.40;18.83;;;;;;;5.23;70.24;101455.41;8674533;33;20169;-74
2021/11/15 15:47:24;;;;;;;52.58;24.83;;;;;;;5.22;70.44;101457.22;8663304;33;20434;-74
2021/11/15 15:52:29;;;;;;;48.65;20.85;;;;;;;5.23;70.84;101444.75;8661658;33;21103;-74
2021/11/15 15:57:32;;;;;;;49.88;23.80;;;;;;;5.21;70.80;101442.16;8658305;33;20135;-75
2021/11/15 16:02:35;;;;;;;46.00;21.13;;;;;;;5.24;70.92;101443.84;8658073;33;21757;-74
2021/11/15 16:07:44;;;;;;;52.97;24.48;;;;;;;5.22;70.92;101437.69;8657054;33;20213;-75
2021/11/15 16:13:06;;;;;;;55.75;23.70;;;;;;;5.17;71.13;101445.00;8657560;33;20213;-74
2021/11/15 16:18:10;;;;;;;54.47;24.70;;;;;;;5.17;71.00;101464.53;8651723;33;20223;-75
2021/11/15 16:23:15;;;;;;;56.15;24.25;;;;;;;5.19;70.34;101451.16;8655817;33;20543;-74
2021/11/15 16:28:18;;;;;;;55.58;23.70;;;;;;;5.13;71.23;101456.72;8658010;33;20293;-74
2021/11/15 16:33:21;;;;;;;54.47;23.15;;;;;;;5.08;70.75;101454.25;8656999;33;20410;-74
2021/11/15 16:38:26;;;;;;;63.58;26.67;;;;;;;5.08;70.83;101451.59;8661659;33;20460;-74
2021/11/15 16:43:29;;;;;;;54.55;24.17;;;;;;;5.10;70.73;101441.75;8662320;33;20774;-74
2021/11/15 16:48:32;;;;;;;54.50;24.33;;;;;;;4.98;70.93;101443.06;8661495;33;20423;-73
2021/11/15 16:53:39;;;;;;;49.67;21.83;;;;;;;5.09;70.56;101436.47;8660315;33;20463;-74
2021/11/15 16:58:43;;;;;;;57.72;23.52;;;;;;;4.98;70.69;101431.56;8660831;33;20171;-74
2021/11/15 17:03:48;;;;;;;100.82;35.22;;;;;;;4.97;70.86;101440.47;8671151;33;20464;-74
2021/11/15 17:08:52;;;;;;;64.90;28.77;;;;;;;4.83;71.09;101433.91;8650992;33;20130;-74
2021/11/15 17:13:56;;;;;;;65.07;27.00;;;;;;;4.96;70.70;101426.28;8649010;33;20413;-74
2021/11/15 17:18:59;;;;;;;59.05;23.42;;;;;;;4.98;70.55;101427.09;8647612;33;20398;-74
2021/11/15 17:24:05;;;;;;;49.15;22.40;;;;;;;4.98;70.64;101434.22;8623415;33;20289;-74
2021/11/15 17:29:10;;;;;;;50.40;20.48;;;;;;;5.06;70.63;101430.34;8649155;33;20166;-75
2021/11/15 17:34:14;;;;;;;49.35;20.60;;;;;;;5.01;70.62;101428.78;8642388;33;20595;-76
2021/11/15 17:39:19;;;;;;;42.95;19.55;;;;;;;5.04;70.57;101418.00;8653868;33;20419;-76
2021/11/15 17:44:23;;;;;;;47.67;21.70;;;;;;;5.03;70.65;101432.25;8649236;33;20192;-75
2021/11/15 17:49:27;;;;;;;54.15;26.33;;;;;;;5.00;70.21;101435.06;8650717;33;20415;-73
2021/11/15 17:54:42;;;;;;;59.10;29.27;;;;;;;4.87;71.25;101431.97;8652747;33;20469;-75
2021/11/15 17:59:47;;;;;;;46.78;21.13;;;;;;;4.82;71.25;101433.97;8655150;33;20984;-75
2021/11/15 18:04:51;;;;;;;48.53;20.23;;;;;;;5.01;70.71;101450.09;8654819;33;20682;-75
2021/11/15 18:09:56;;;;;;;47.70;22.02;;;;;;;4.99;71.02;101450.19;8656936;33;22589;-74
2021/11/15 18:14:59;;;;;;;46.72;19.63;;;;;;;5.00;70.87;101441.25;8657510;33;20245;-75
2021/11/15 18:20:06;;;;;;;41.28;17.67;;;;;;;4.97;70.74;101440.47;8665325;33;20219;-76
2021/11/15 18:25:10;;;;;;;48.30;20.63;;;;;;;4.81;71.19;101445.56;8665847;33;20611;-75
2021/11/15 18:30:17;;;;;;;44.10;20.27;;;;;;;4.97;71.38;101443.16;8655969;33;20420;-75
2021/11/15 18:35:22;;;;;;;43.63;19.98;;;;;;;4.81;71.78;101437.56;8625365;33;22282;-75
2021/11/15 18:40:27;;;;;;;54.67;25.38;;;;;;;4.83;71.66;101435.72;8651463;33;20276;-75
2021/11/15 18:45:30;;;;;;;62.88;28.90;;;;;;;4.99;71.59;101428.88;8652494;33;20694;-75
2021/11/15 18:50:35;;;;;;;72.43;31.92;;;;;;;4.92;71.87;101443.31;8638522;33;20139;-75
2021/11/15 18:55:40;;;;;;;69.18;32.28;;;;;;;5.04;71.96;101441.97;8625052;33;20623;-75
2021/11/15 19:00:43;;;;;;;53.92;23.27;;;;;;;5.10;71.86;101448.84;8638920;33;20147;-75
2021/11/15 19:05:46;;;;;;;55.63;24.25;;;;;;;5.12;71.81;101449.66;8615027;33;20280;-74
2021/11/15 19:11:02;;;;;;;53.00;23.63;;;;;;;5.11;71.93;101455.94;8629285;33;20415;-74
2021/11/15 19:16:07;;;;;;;53.72;23.23;;;;;;;5.13;72.16;101459.38;8607134;33;20403;-75
2021/11/15 19:21:11;;;;;;;52.08;22.35;;;;;;;5.09;72.24;101452.44;8610205;33;20457;-75
2021/11/15 19:26:17;;;;;;;47.05;23.80;;;;;;;5.05;72.44;101451.72;8643945;33;20421;-74
2021/11/15 19:31:20;;;;;;;50.00;22.17;;;;;;;5.04;72.32;101453.50;8602594;33;20191;-74
2021/11/15 19:36:24;;;;;;;50.05;23.67;;;;;;;5.04;72.50;101442.84;8647969;33;20465;-74
2021/11/15 19:41:30;;;;;;;56.30;23.48;;;;;;;5.04;72.56;101442.84;8638344;33;21461;-74
2021/11/15 19:46:34;;;;;;;47.17;22.88;;;;;;;4.98;72.54;101453.72;8638436;33;20426;-74
2021/11/15 19:51:38;;;;;;;55.58;24.08;;;;;;;4.98;72.33;101453.72;8593146;33;20161;-74
2021/11/15 19:56:43;;;;;;;51.58;23.02;;;;;;;4.96;72.72;101454.72;8582720;33;20274;-74
2021/11/15 20:01:46;;;;;;;54.33;24.88;;;;;;;4.96;72.48;101457.38;8582301;33;20694;-74
2021/11/15 20:06:50;;;;;;;60.15;26.30;;;;;;;5.01;72.51;101458.09;8623286;33;20450;-74
2021/11/15 20:11:54;;;;;;;48.55;22.17;;;;;;;5.02;72.41;101452.72;8625737;33;20262;-74
2021/11/15 20:16:57;;;;;;;56.83;24.48;;;;;;;4.99;72.38;101463.50;8625553;33;20567;-75
2021/11/15 20:22:10;;;;;;;58.83;25.25;;;;;;;5.01;72.42;101466.94;8626358;33;20421;-75
2021/11/15 20:27:15;;;;;;;53.45;24.15;;;;;;;4.97;72.42;101464.44;8623866;33;20439;-75
2021/11/15 20:32:19;;;;;;;53.97;22.80;;;;;;;4.97;72.34;101456.47;8623944;33;20159;-74
2021/11/15 20:37:23;;;;;;;52.40;22.98;;;;;;;4.98;72.41;101453.72;8621186;33;20410;-75
2021/11/15 20:42:27;;;;;;;54.35;22.85;;;;;;;5.01;72.00;101440.31;8627906;33;20136;-74
2021/11/15 20:47:30;;;;;;;55.63;24.00;;;;;;;5.00;72.21;101445.72;8600042;33;21369;-74
2021/11/15 20:52:35;;;;;;;48.83;23.05;;;;;;;4.95;72.21;101452.97;8597592;33;20514;-74
2021/11/15 20:57:41;;;;;;;51.05;23.13;;;;;;;4.95;72.06;101439.66;8597429;33;20421;-76
2021/11/15 21:02:44;;;;;;;57.42;23.00;;;;;;;5.00;72.24;101435.06;8620577;33;20197;-74
2021/11/15 21:07:48;;;;;;;45.60;21.48;;;;;;;5.02;71.98;101430.53;8621118;33;20522;-74
2021/11/15 21:12:52;;;;;;;47.75;20.85;;;;;;;5.03;72.40;101443.78;8608919;33;20238;-75
2021/11/15 21:17:55;;;;;;;45.88;20.48;;;;;;;4.97;71.66;101436.00;8579942;33;20451;-75
2021/11/15 21:23:01;;;;;;;50.58;22.55;;;;;;;4.99;72.03;101452.84;8607656;33;20424;-75
2021/11/15 21:28:07;;;;;;;48.58;20.88;;;;;;;4.93;72.10;101454.84;8603875;33;20143;-74
2021/11/15 21:33:13;;;;;;;45.40;21.27;;;;;;;4.94;72.10;101448.59;8565285;33;20904;-75
2021/11/15 21:38:17;;;;;;;52.72;19.77;;;;;;;4.91;72.33;101440.72;8604718;33;20414;-75
2021/11/15 21:43:22;;;;;;;44.97;20.10;;;;;;;4.90;72.42;101436.31;8596114;33;20370;-75
2021/11/15 21:48:25;;;;;;;44.25;20.38;;;;;;;4.88;72.39;101440.84;8593934;33;20187;-75
2021/11/15 21:53:28;;;;;;;48.10;20.48;;;;;;;4.86;72.50;101440.06;8602990;33;20143;-75
2021/11/15 21:58:33;;;;;;;50.60;21.00;;;;;;;4.84;72.54;101440.97;8614192;33;20420;-76
2021/11/15 22:03:36;;;;;;;46.13;20.13;;;;;;;4.87;72.64;101447.09;8614727;33;20149;-75
2021/11/15 22:08:40;;;;;;;45.10;21.48;;;;;;;4.89;72.63;101446.13;8602714;33;20405;-75
2021/11/15 22:13:46;;;;;;;48.08;21.65;;;;;;;4.92;72.92;101437.13;8583101;33;20151;-76
2021/11/15 22:18:49;;;;;;;47.08;21.10;;;;;;;4.90;72.74;101445.16;8618048;33;20414;-75
2021/11/15 22:23:55;;;;;;;50.00;20.17;;;;;;;4.84;73.01;101446.28;8622286;33;20444;-75
2021/11/15 22:29:01;;;;;;;47.55;22.08;;;;;;;4.83;72.95;101441.91;8637795;33;20429;-75
2021/11/15 22:34:05;;;;;;;46.45;19.58;;;;;;;4.75;73.20;101438.69;8655999;33;20514;-75
2021/11/15 22:39:08;;;;;;;45.60;20.15;;;;;;;4.70;73.62;101430.00;8644515;33;20182;-75
2021/11/15 22:44:13;;;;;;;42.33;20.08;;;;;;;4.66;73.86;101433.69;8655886;33;20407;-75
2021/11/15 22:49:16;;;;;;;50.22;21.02;;;;;;;4.67;74.18;101440.78;8635392;33;20143;-75
2021/11/15 22:54:19;;;;;;;44.28;20.15;;;;;;;4.67;74.30;101435.47;8671146;33;20355;-75
2021/11/15 22:59:23;;;;;;;47.10;21.52;;;;;;;4.67;74.80;101427.47;8650405;33;20193;-75
2021/11/15 23:04:26;;;;;;;50.05;22.30;;;;;;;4.60;74.78;101428.63;8668794;33;20446;-74
2021/11/15 23:09:29;;;;;;;52.95;21.95;;;;;;;4.53;75.11;101432.47;8670971;33;20402;-74
2021/11/15 23:14:34;;;;;;;60.00;24.60;;;;;;;4.54;75.51;101432.41;8664398;33;20407;-73
2021/11/15 23:19:37;;;;;;;50.88;21.48;;;;;;;4.50;75.81;101419.25;8659450;33;20408;-76
2021/11/15 23:24:41;;;;;;;57.10;23.83;;;;;;;4.49;76.12;101425.53;8634384;33;20685;-73
2021/11/15 23:29:46;;;;;;;52.90;23.52;;;;;;;4.43;76.40;101417.78;8659770;33;20403;-75